Time;durP1;ratioP1;P1;durP2;ratioP2;P2;SDS_P1;SDS_P2;PMS_P1;PMS_P2;Temp;Humidity;BMP_temperature;BMP_pressure;BME280_temperature;BME280_humidity;BME280_pressure;Samples;Min_cycle;Max_cycle;Signal;HPM_P1;HPM_P2
2022/03/28 00:01:12;;;;;;;18.17;10.97;;;;;;;14.45;36.21;98319.47;5111521;28;20429;-71
2022/03/28 00:03:37;;;;;;;19.50;10.20;;;;;;;14.29;36.39;98320.97;5111386;28;20521;-72
2022/03/28 00:06:04;;;;;;;19.50;10.83;;;;;;;14.32;36.20;98321.66;5111719;28;20801;-71
2022/03/28 00:08:30;;;;;;;20.93;10.97;;;;;;;14.29;36.43;98315.69;5112771;27;20276;-69
2022/03/28 00:10:56;;;;;;;19.40;10.67;;;;;;;14.25;36.53;98319.59;5120376;27;20543;-70
2022/03/28 00:13:21;;;;;;;25.63;11.93;;;;;;;14.26;36.39;98321.25;5111199;28;20439;-70
2022/03/28 00:15:47;;;;;;;19.13;11.00;;;;;;;14.32;36.06;98313.75;5112374;27;20454;-70
2022/03/28 00:18:12;;;;;;;18.50;10.60;;;;;;;14.29;36.35;98310.41;5108795;28;20197;-70
2022/03/28 00:20:38;;;;;;;15.93;10.90;;;;;;;14.29;36.44;98314.88;5111368;28;20665;-70
2022/03/28 00:23:04;;;;;;;21.00;11.27;;;;;;;14.25;36.51;98309.03;5111487;28;20296;-70
2022/03/28 00:25:30;;;;;;;17.00;10.20;;;;;;;14.23;36.33;98304.91;5111493;28;20852;-71
2022/03/28 00:27:55;;;;;;;20.80;10.17;;;;;;;14.25;35.85;98302.97;5111613;28;20181;-71
2022/03/28 00:30:21;;;;;;;23.73;10.57;;;;;;;14.11;36.11;98296.41;5111170;28;20287;-70
2022/03/28 00:32:46;;;;;;;27.43;11.10;;;;;;;14.18;36.25;98297.44;5115542;27;20210;-70
2022/03/28 00:35:12;;;;;;;20.60;10.40;;;;;;;14.16;36.32;98290.69;5115133;27;20208;-69
2022/03/28 00:37:39;;;;;;;22.90;11.20;;;;;;;14.11;36.40;98291.94;5111197;28;20196;-69
2022/03/28 00:40:09;;;;;;;17.60;10.47;;;;;;;14.09;36.47;98293.06;5110977;28;20180;-70
2022/03/28 00:42:37;;;;;;;19.30;11.70;;;;;;;14.08;36.41;98284.31;5110973;28;20446;-71
2022/03/28 00:45:06;;;;;;;18.70;11.60;;;;;;;14.03;36.34;98283.09;5111683;28;20434;-71
2022/03/28 00:47:32;;;;;;;18.73;11.73;;;;;;;14.00;36.49;98275.50;5100311;28;20432;-71
2022/03/28 00:49:58;;;;;;;18.07;11.37;;;;;;;13.97;36.35;98272.19;5110680;28;20425;-71
2022/03/28 00:52:24;;;;;;;18.63;11.00;;;;;;;13.92;36.69;98281.53;5119558;27;20204;-71
2022/03/28 00:54:49;;;;;;;26.37;11.60;;;;;;;13.89;36.32;98280.00;5097382;28;20197;-70
2022/03/28 00:57:15;;;;;;;19.43;10.27;;;;;;;13.65;36.19;98289.25;5111357;28;20188;-71
2022/03/28 00:59:40;;;;;;;18.10;10.20;;;;;;;13.78;36.35;98281.03;5110550;28;20268;-71
2022/03/28 01:02:06;;;;;;;16.33;11.23;;;;;;;13.82;36.38;98278.94;5094553;28;20197;-72
2022/03/28 01:04:31;;;;;;;16.80;11.03;;;;;;;13.82;36.53;98274.47;5109641;28;20229;-71
2022/03/28 01:06:57;;;;;;;15.80;10.27;;;;;;;13.77;36.49;98291.69;5110863;28;20189;-70
2022/03/28 01:09:23;;;;;;;20.90;10.90;;;;;;;13.81;36.45;98277.28;5119454;28;20220;-70
2022/03/28 01:11:49;;;;;;;18.50;10.13;;;;;;;13.78;36.83;98274.94;5111008;28;20262;-72
2022/03/28 01:14:15;;;;;;;27.13;11.30;;;;;;;13.79;36.76;98271.31;5096251;28;20272;-71
2022/03/28 01:19:25;;;;;;;21.63;11.40;;;;;;;13.75;36.51;98269.94;5115386;28;20423;-70
2022/03/28 01:21:51;;;;;;;16.90;10.30;;;;;;;13.69;36.23;98260.00;5115793;28;20419;-72
2022/03/28 01:24:17;;;;;;;22.50;9.93;;;;;;;13.56;35.36;98261.16;5115227;28;20200;-71
2022/03/28 01:26:43;;;;;;;25.33;10.20;;;;;;;13.45;35.45;98264.00;5114592;28;20574;-71
2022/03/28 01:29:09;;;;;;;17.90;9.57;;;;;;;13.46;35.55;98257.75;5114475;27;20185;-73
2022/03/28 01:31:39;;;;;;;14.50;9.40;;;;;;;13.49;36.13;98260.91;5117408;27;21013;-69
2022/03/28 01:34:05;;;;;;;25.13;11.17;;;;;;;13.54;36.27;98257.03;5120113;27;20201;-70
2022/03/28 01:36:30;;;;;;;17.80;10.53;;;;;;;13.45;36.11;98254.28;5114260;28;20426;-69
2022/03/28 01:38:55;;;;;;;18.00;10.43;;;;;;;13.41;35.31;98252.94;5123086;27;20435;-71
2022/03/28 01:41:21;;;;;;;22.53;10.40;;;;;;;13.41;35.56;98252.94;5123306;27;20180;-69
2022/03/28 01:43:46;;;;;;;22.00;9.63;;;;;;;13.41;35.18;98246.81;5114046;28;20612;-70
2022/03/28 01:46:12;;;;;;;20.50;10.10;;;;;;;13.34;35.48;98247.38;5115300;27;20177;-70
2022/03/28 01:48:37;;;;;;;20.67;9.10;;;;;;;13.32;35.09;98238.78;5123136;27;20204;-72
2022/03/28 01:51:03;;;;;;;16.97;9.60;;;;;;;13.27;35.03;98241.00;5114946;28;20212;-71
2022/03/28 01:53:28;;;;;;;17.37;9.27;;;;;;;13.22;35.29;98238.00;5122547;27;20212;-70
2022/03/28 01:55:54;;;;;;;23.63;9.43;;;;;;;13.15;35.84;98234.25;5113911;28;20285;-69
2022/03/28 01:58:19;;;;;;;19.60;9.20;;;;;;;13.22;35.59;98232.72;5114409;28;20181;-70
2022/03/28 02:00:45;;;;;;;16.60;9.10;;;;;;;13.26;35.20;98228.81;5113923;28;20179;-69
2022/03/28 02:03:10;;;;;;;16.13;9.83;;;;;;;13.17;36.03;98229.69;5114130;28;20694;-71
2022/03/28 02:05:36;;;;;;;19.67;9.90;;;;;;;13.12;36.03;98231.91;5113894;28;20272;-70
2022/03/28 02:08:02;;;;;;;15.40;9.30;;;;;;;13.13;35.84;98229.16;5113962;28;20273;-70
2022/03/28 02:10:27;;;;;;;19.37;10.30;;;;;;;13.14;36.08;98236.09;5113482;28;20189;-71
2022/03/28 02:12:53;;;;;;;15.07;10.17;;;;;;;13.11;36.04;98225.00;5115620;28;20454;-73
2022/03/28 02:15:20;;;;;;;16.70;9.13;;;;;;;13.03;35.60;98221.28;5115294;28;20211;-73
2022/03/28 02:17:45;;;;;;;16.60;9.20;;;;;;;12.83;36.13;98224.94;5115714;27;20559;-70
2022/03/28 02:20:12;;;;;;;14.53;8.70;;;;;;;12.57;36.45;98222.91;5113747;28;20419;-72
2022/03/28 02:22:39;;;;;;;13.47;9.30;;;;;;;12.58;36.49;98220.13;5113556;28;20673;-70
2022/03/28 02:25:06;;;;;;;15.10;9.23;;;;;;;12.67;36.45;98222.88;5096671;28;20464;-70
2022/03/28 02:27:32;;;;;;;22.23;10.33;;;;;;;12.58;36.24;98220.13;5114812;27;20513;-70
2022/03/28 02:29:58;;;;;;;18.70;9.47;;;;;;;12.59;36.24;98218.34;5127694;27;20879;-70
2022/03/28 02:32:23;;;;;;;16.93;9.33;;;;;;;12.68;36.51;98217.50;5115041;27;20251;-71
2022/03/28 02:34:49;;;;;;;23.23;9.67;;;;;;;12.70;35.94;98218.19;5120900;27;20197;-70
2022/03/28 02:37:14;;;;;;;20.90;9.00;;;;;;;12.60;36.57;98217.38;5113382;28;20557;-69
2022/03/28 02:39:40;;;;;;;16.27;9.63;;;;;;;12.64;36.36;98213.47;5112759;28;20181;-71
2022/03/28 02:42:05;;;;;;;16.70;9.73;;;;;;;12.68;36.50;98217.50;5113295;28;20550;-69
2022/03/28 02:44:31;;;;;;;19.63;9.80;;;;;;;12.58;36.53;98203.53;5095246;28;20193;-70
2022/03/28 02:46:57;;;;;;;17.73;10.13;;;;;;;12.63;36.25;98211.00;5119316;27;20584;-71
2022/03/28 02:49:22;;;;;;;15.80;9.17;;;;;;;12.72;36.55;98210.16;5112450;28;20193;-71
2022/03/28 02:51:47;;;;;;;15.57;9.70;;;;;;;12.70;36.58;98197.16;5113590;28;20177;-70
2022/03/28 02:54:13;;;;;;;19.13;9.37;;;;;;;12.68;35.53;98198.22;5113201;28;20631;-70
2022/03/28 02:56:39;;;;;;;21.20;10.27;;;;;;;12.57;35.92;98200.06;5112709;28;20184;-71
2022/03/28 02:59:05;;;;;;;17.30;10.30;;;;;;;12.57;35.78;98194.78;5113000;27;20433;-72
2022/03/28 03:01:30;;;;;;;15.70;10.10;;;;;;;12.53;35.70;98193.44;5121548;27;20229;-70
2022/03/28 03:03:56;;;;;;;21.70;9.40;;;;;;;12.58;35.90;98195.63;5115217;27;20216;-70
2022/03/28 03:06:21;;;;;;;15.60;9.30;;;;;;;12.59;35.19;98184.97;5133477;27;20183;-71
2022/03/28 03:08:47;;;;;;;17.90;10.27;;;;;;;12.57;36.00;98188.72;5120042;27;20615;-69
2022/03/28 03:11:13;;;;;;;18.20;10.40;;;;;;;12.55;35.61;98183.59;5108489;28;20702;-71
2022/03/28 03:13:38;;;;;;;20.93;10.60;;;;;;;12.48;35.46;98184.28;5106946;27;20458;-71
2022/03/28 03:16:04;;;;;;;18.87;10.00;;;;;;;12.39;35.90;98183.34;5112293;28;20240;-72
2022/03/28 03:18:30;;;;;;;17.20;10.13;;;;;;;12.20;36.40;98179.75;5111811;28;20192;-72
2022/03/28 03:20:56;;;;;;;18.70;10.13;;;;;;;12.34;36.28;98173.25;5120950;27;20213;-71
2022/03/28 03:23:21;;;;;;;22.83;9.43;;;;;;;12.37;36.25;98180.03;5112058;28;20212;-70
2022/03/28 03:25:47;;;;;;;19.83;10.97;;;;;;;12.38;36.21;98171.16;5098865;28;20181;-71
2022/03/28 03:28:12;;;;;;;32.43;10.60;;;;;;;12.37;35.93;98172.97;5106936;28;20208;-72
2022/03/28 03:30:38;;;;;;;21.67;11.27;;;;;;;12.39;35.82;98176.28;5162769;27;20185;-70
2022/03/28 03:33:03;;;;;;;18.00;10.53;;;;;;;12.41;36.52;98171.72;5119073;27;20215;-72
2022/03/28 03:35:29;;;;;;;24.50;10.87;;;;;;;12.48;36.04;98165.88;5116020;27;20296;-71
2022/03/28 03:37:55;;;;;;;21.23;10.40;;;;;;;12.39;36.16;98167.56;5118784;27;20192;-71
2022/03/28 03:40:20;;;;;;;21.53;10.90;;;;;;;12.41;36.26;98171.72;5111979;28;20217;-71
2022/03/28 03:42:46;;;;;;;25.37;11.67;;;;;;;12.40;36.18;98169.25;5114834;27;20224;-72
2022/03/28 03:45:11;;;;;;;20.73;10.77;;;;;;;12.33;35.96;98168.97;5112246;28;20184;-71
2022/03/28 03:47:37;;;;;;;19.47;10.73;;;;;;;12.25;36.27;98168.81;5112437;28;20173;-70
2022/03/28 03:50:04;;;;;;;19.00;10.50;;;;;;;12.32;36.05;98169.09;5112168;28;20192;-71
2022/03/28 03:52:30;;;;;;;19.37;10.23;;;;;;;12.36;36.27;98173.91;5111872;28;20442;-73
2022/03/28 03:54:56;;;;;;;17.57;9.93;;;;;;;12.36;36.71;98168.66;5117352;28;20461;-71
2022/03/28 03:57:21;;;;;;;15.60;10.13;;;;;;;12.36;36.67;98166.03;5116723;28;20502;-71
2022/03/28 03:59:47;;;;;;;23.70;10.47;;;;;;;12.31;36.42;98162.16;5116095;28;20567;-73
2022/03/28 04:02:12;;;;;;;18.00;10.43;;;;;;;12.31;36.97;98165.66;5124971;27;20197;-72
2022/03/28 04:04:37;;;;;;;19.83;10.90;;;;;;;12.28;36.96;98160.66;5115895;28;20278;-71
2022/03/28 04:07:03;;;;;;;20.40;11.50;;;;;;;12.29;36.80;98164.94;5110143;28;20182;-73
2022/03/28 04:09:29;;;;;;;21.77;10.57;;;;;;;12.26;37.00;98159.97;5116607;28;20189;-72
2022/03/28 04:11:54;;;;;;;19.23;10.80;;;;;;;12.06;37.28;98153.88;5118891;27;20181;-73
2022/03/28 04:14:20;;;;;;;20.10;10.70;;;;;;;11.99;37.55;98156.22;5110803;27;20206;-71
2022/03/28 04:16:45;;;;;;;17.17;9.97;;;;;;;11.97;37.75;98164.22;5124375;27;20179;-70
2022/03/28 04:19:11;;;;;;;19.70;10.27;;;;;;;11.98;37.84;98160.66;5123705;27;20188;-70
2022/03/28 04:21:36;;;;;;;20.23;10.87;;;;;;;12.01;37.62;98164.00;5111771;27;20210;-69
2022/03/28 04:24:03;;;;;;;16.00;10.10;;;;;;;12.02;37.62;98158.59;5111245;28;20237;-72
2022/03/28 04:26:28;;;;;;;24.97;10.50;;;;;;;12.03;37.47;98155.00;5120339;27;20267;-72
2022/03/28 04:28:53;;;;;;;18.47;10.40;;;;;;;11.98;37.27;98155.41;5110627;28;20538;-71
2022/03/28 04:31:19;;;;;;;19.70;10.67;;;;;;;11.98;37.63;98154.56;5111159;28;20189;-71
2022/03/28 04:33:44;;;;;;;20.80;10.70;;;;;;;11.98;37.72;98154.56;5103281;28;20203;-73
2022/03/28 04:36:10;;;;;;;20.80;11.03;;;;;;;11.96;37.38;98153.88;5111146;28;20297;-72
2022/03/28 04:38:35;;;;;;;22.53;11.40;;;;;;;11.96;37.05;98153.88;5110184;28;20258;-74
2022/03/28 04:41:01;;;;;;;20.50;10.50;;;;;;;11.96;36.99;98159.13;5111627;28;20226;-73
2022/03/28 04:43:26;;;;;;;21.07;11.80;;;;;;;11.88;37.50;98159.81;5115641;27;20195;-70
2022/03/28 04:45:52;;;;;;;20.80;10.87;;;;;;;11.83;37.06;98151.50;5110364;28;20264;-72
2022/03/28 04:48:17;;;;;;;21.53;11.33;;;;;;;11.83;36.92;98157.59;5107006;28;20660;-71
2022/03/28 04:50:43;;;;;;;23.03;11.07;;;;;;;11.86;37.08;98164.38;5111046;28;20278;-71
2022/03/28 04:53:08;;;;;;;19.40;11.47;;;;;;;11.91;37.08;98163.94;5101655;28;20211;-72
2022/03/28 04:55:34;;;;;;;29.70;11.57;;;;;;;11.80;37.25;98160.50;5112963;28;20205;-74
2022/03/28 04:57:59;;;;;;;24.87;11.10;;;;;;;11.72;37.51;98164.75;5117166;27;20189;-69
2022/03/28 05:00:25;;;;;;;23.17;11.10;;;;;;;11.71;37.47;98158.69;5110471;28;20273;-71
2022/03/28 05:02:51;;;;;;;20.87;10.70;;;;;;;11.71;37.60;98156.06;5110564;28;20203;-72
2022/03/28 05:05:16;;;;;;;18.63;10.73;;;;;;;11.73;37.23;98156.72;5118502;28;20271;-70
2022/03/28 05:07:42;;;;;;;24.80;11.50;;;;;;;11.71;37.70;98153.44;5111084;28;20326;-72
2022/03/28 05:10:08;;;;;;;23.60;11.20;;;;;;;11.78;37.75;98166.84;5110760;28;20188;-70
2022/03/28 05:12:33;;;;;;;20.43;10.93;;;;;;;11.84;37.54;98161.84;5104874;28;20234;-72
2022/03/28 05:14:59;;;;;;;25.63;11.70;;;;;;;11.84;37.32;98164.47;5115489;28;20845;-72
2022/03/28 05:17:27;;;;;;;23.37;11.17;;;;;;;11.93;37.64;98162.03;5123148;27;20189;-72
2022/03/28 05:19:54;;;;;;;31.20;11.60;;;;;;;11.86;37.48;98159.13;5122617;27;20185;-71
2022/03/28 05:22:20;;;;;;;28.93;11.10;;;;;;;11.78;37.96;98159.78;5114252;27;20425;-71
2022/03/28 05:24:46;;;;;;;24.43;11.87;;;;;;;11.73;38.02;98156.72;5129554;28;20763;-73
2022/03/28 05:27:12;;;;;;;26.40;11.77;;;;;;;11.79;38.17;98156.22;5115178;27;20419;-73
2022/03/28 05:29:37;;;;;;;26.77;11.80;;;;;;;11.87;37.90;98158.16;5129424;28;20422;-70
2022/03/28 05:32:05;;;;;;;28.03;11.90;;;;;;;11.91;37.84;98158.69;5129790;28;20208;-70
2022/03/28 05:34:30;;;;;;;24.07;11.60;;;;;;;11.87;37.56;98159.94;5111851;27;20295;-71
2022/03/28 05:36:58;;;;;;;17.73;10.83;;;;;;;11.86;38.30;98159.13;5119700;28;20837;-71
2022/03/28 05:39:23;;;;;;;21.40;12.53;;;;;;;11.77;37.87;98157.31;5126439;28;20652;-72
2022/03/28 05:41:49;;;;;;;23.17;11.07;;;;;;;11.86;37.92;98153.00;5122473;28;20421;-72
2022/03/28 05:44:15;;;;;;;24.50;11.93;;;;;;;11.92;38.02;98155.09;5121326;27;20207;-70
2022/03/28 05:46:40;;;;;;;21.03;11.90;;;;;;;11.96;37.84;98152.06;5131083;27;20180;-70
2022/03/28 05:49:05;;;;;;;25.00;11.97;;;;;;;11.97;37.74;98158.16;5115087;28;20215;-71
2022/03/28 05:51:31;;;;;;;25.63;11.87;;;;;;;11.97;38.10;98158.97;5126651;28;20550;-70
2022/03/28 05:53:56;;;;;;;30.73;11.83;;;;;;;11.88;37.91;98156.34;5124980;28;20345;-72
2022/03/28 05:56:22;;;;;;;22.03;11.70;;;;;;;11.90;38.54;98151.78;5113798;28;20300;-71
2022/03/28 05:58:47;;;;;;;27.90;11.10;;;;;;;11.88;38.63;98157.19;5117735;28;20177;-69
2022/03/28 06:01:13;;;;;;;31.70;12.70;;;;;;;11.93;38.43;98156.78;5121299;27;20557;-69
2022/03/28 06:03:38;;;;;;;23.47;12.20;;;;;;;11.90;38.46;98157.03;5122431;27;20196;-71
2022/03/28 06:06:07;;;;;;;30.83;12.13;;;;;;;11.98;38.43;98154.56;5094058;27;20519;-71
2022/03/28 06:08:32;;;;;;;25.10;12.70;;;;;;;12.16;38.17;98157.34;5130881;27;20192;-72
2022/03/28 06:10:58;;;;;;;33.90;13.40;;;;;;;12.19;37.92;98161.50;5093206;27;20518;-70
2022/03/28 06:13:23;;;;;;;23.13;13.10;;;;;;;12.27;38.18;98159.00;5123093;27;20277;-69
2022/03/28 06:15:49;;;;;;;24.43;11.53;;;;;;;12.33;38.14;98163.72;5119632;27;20733;-71
2022/03/28 06:18:15;;;;;;;20.63;12.30;;;;;;;12.52;37.63;98154.13;5121912;27;20203;-70
2022/03/28 06:20:40;;;;;;;34.63;13.60;;;;;;;12.53;37.79;98159.25;5130995;27;20415;-71
2022/03/28 06:23:06;;;;;;;21.83;12.97;;;;;;;12.72;37.34;98152.28;5113859;28;20691;-72
2022/03/28 06:25:32;;;;;;;27.00;13.13;;;;;;;12.78;36.94;98156.97;5131665;27;20610;-73
2022/03/28 06:27:57;;;;;;;24.13;12.57;;;;;;;12.91;37.31;98151.38;5126254;27;20844;-72
2022/03/28 06:30:23;;;;;;;22.03;13.10;;;;;;;13.00;36.64;98155.78;5114896;27;20212;-72
2022/03/28 06:32:48;;;;;;;20.30;12.47;;;;;;;13.12;36.59;98155.59;5126940;27;20227;-73
2022/03/28 06:35:13;;;;;;;30.87;12.60;;;;;;;13.27;36.32;98162.03;5125695;27;20210;-72
2022/03/28 06:37:39;;;;;;;24.90;12.57;;;;;;;13.43;36.11;98160.59;5124604;27;20197;-72
2022/03/28 06:40:05;;;;;;;27.93;12.70;;;;;;;13.55;36.05;98159.44;5120151;27;20706;-73
2022/03/28 06:42:32;;;;;;;24.93;12.60;;;;;;;13.69;35.70;98158.06;5121881;27;20204;-72
2022/03/28 06:44:58;;;;;;;31.03;12.10;;;;;;;13.81;35.83;98158.72;5126310;27;20445;-71
2022/03/28 06:47:24;;;;;;;28.87;13.40;;;;;;;14.01;35.00;98161.19;5124224;27;20926;-73
2022/03/28 06:49:49;;;;;;;32.73;13.00;;;;;;;14.21;35.05;98156.59;5125548;27;20418;-71
2022/03/28 06:52:15;;;;;;;28.03;12.50;;;;;;;14.41;35.09;98154.59;5125342;27;20628;-71
2022/03/28 06:54:41;;;;;;;25.63;12.60;;;;;;;14.50;34.21;98148.38;5131800;27;20816;-71
2022/03/28 06:57:06;;;;;;;34.63;12.20;;;;;;;14.56;34.29;98152.22;5121358;27;20204;-72
2022/03/28 06:59:31;;;;;;;29.30;12.50;;;;;;;14.71;33.99;98150.72;5120720;27;20216;-70
2022/03/28 07:01:57;;;;;;;23.03;12.37;;;;;;;14.83;33.78;98151.28;5127695;27;20181;-70
2022/03/28 07:04:23;;;;;;;29.47;12.93;;;;;;;14.87;33.52;98144.69;5128093;27;20216;-70
2022/03/28 07:06:49;;;;;;;35.70;14.10;;;;;;;15.03;33.32;98137.84;5121813;27;20193;-71
2022/03/28 07:09:15;;;;;;;31.63;12.40;;;;;;;15.15;33.14;98139.22;5112928;28;20430;-70
2022/03/28 07:11:40;;;;;;;26.47;12.67;;;;;;;15.31;33.14;98137.63;5120336;27;20177;-71
2022/03/28 07:14:07;;;;;;;28.73;13.30;;;;;;;15.44;33.35;98145.09;5121858;27;20261;-71
2022/03/28 07:16:36;;;;;;;24.00;12.40;;;;;;;15.69;33.36;98131.97;5121285;27;20306;-72
2022/03/28 07:19:01;;;;;;;23.73;13.03;;;;;;;15.93;32.54;98144.41;5127677;27;20430;-70
2022/03/28 07:21:27;;;;;;;41.97;13.80;;;;;;;16.05;31.81;98145.75;5116059;27;20423;-71
2022/03/28 07:23:53;;;;;;;20.60;13.33;;;;;;;16.13;32.28;98143.09;5128314;27;20816;-70
2022/03/28 07:26:20;;;;;;;28.53;13.47;;;;;;;16.29;31.41;98146.72;5121503;27;20419;-72
2022/03/28 07:28:46;;;;;;;23.37;13.13;;;;;;;16.47;31.28;98151.03;5128688;27;20415;-73
2022/03/28 07:31:11;;;;;;;23.37;12.57;;;;;;;16.63;31.63;98140.44;5120552;27;20597;-70
2022/03/28 07:33:41;;;;;;;28.77;14.53;;;;;;;16.78;30.67;98139.72;5111277;27;20205;-72
2022/03/28 07:36:08;;;;;;;22.73;14.37;;;;;;;16.89;30.46;98144.66;5124212;27;20212;-73
2022/03/28 07:38:34;;;;;;;30.70;14.37;;;;;;;16.89;30.04;98144.66;5121878;27;20530;-73
2022/03/28 07:41:00;;;;;;;24.07;13.80;;;;;;;17.06;30.55;98134.03;5127265;27;20450;-71
2022/03/28 07:43:26;;;;;;;26.27;12.90;;;;;;;17.24;30.06;98133.81;5127837;27;20569;-72
2022/03/28 07:45:54;;;;;;;26.57;13.50;;;;;;;17.32;30.22;98126.66;5117784;27;20423;-73
2022/03/28 07:48:21;;;;;;;33.53;14.80;;;;;;;17.49;29.81;98131.88;5129139;27;20229;-73
2022/03/28 07:50:47;;;;;;;34.63;15.43;;;;;;;17.65;29.95;98123.81;5112062;28;20471;-72
2022/03/28 07:53:14;;;;;;;30.30;14.23;;;;;;;17.78;29.64;98117.94;5120828;27;20447;-73
2022/03/28 07:55:39;;;;;;;27.73;13.13;;;;;;;18.00;29.41;98117.31;5122610;27;20457;-73
2022/03/28 07:58:06;;;;;;;33.43;14.40;;;;;;;18.18;29.29;98122.31;5100342;27;20423;-72
2022/03/28 08:00:32;;;;;;;44.17;14.00;;;;;;;18.42;29.01;98123.91;5126412;27;20188;-72
2022/03/28 08:02:58;;;;;;;22.13;13.53;;;;;;;18.60;28.78;98115.63;5118171;27;20434;-72
2022/03/28 08:05:24;;;;;;;37.17;14.30;;;;;;;18.83;28.79;98110.22;5122671;27;20878;-71
2022/03/28 08:07:50;;;;;;;32.60;16.37;;;;;;;18.90;28.26;98120.13;5120323;27;20189;-72
2022/03/28 08:10:16;;;;;;;21.83;12.93;;;;;;;19.08;28.75;98109.97;5120237;27;20196;-71
2022/03/28 08:12:43;;;;;;;25.23;15.20;;;;;;;19.27;28.00;98111.22;5119567;27;20523;-72
2022/03/28 08:15:10;;;;;;;29.77;13.63;;;;;;;19.31;27.65;98112.50;5126067;27;20460;-72
2022/03/28 08:17:36;;;;;;;28.37;14.67;;;;;;;19.58;28.18;98104.84;5121072;27;20414;-73
2022/03/28 08:20:03;;;;;;;29.30;13.43;;;;;;;19.65;27.05;98102.25;5118205;27;20426;-72
2022/03/28 08:22:29;;;;;;;25.20;13.53;;;;;;;19.71;26.41;98100.66;5123420;27;20419;-72
2022/03/28 08:24:55;;;;;;;34.17;14.83;;;;;;;19.83;26.97;98100.97;5069167;28;20946;-72
2022/03/28 08:27:20;;;;;;;29.03;14.00;;;;;;;20.19;27.32;98105.41;5098309;27;20191;-71
2022/03/28 08:29:46;;;;;;;30.23;14.40;;;;;;;20.47;27.89;98104.59;5114251;27;20189;-71
2022/03/28 08:32:11;;;;;;;22.40;14.00;;;;;;;20.78;27.07;98090.09;5080537;28;20192;-72
2022/03/28 08:34:37;;;;;;;24.47;13.50;;;;;;;20.99;26.20;98094.47;5119702;27;20360;-71
2022/03/28 08:37:03;;;;;;;27.10;14.80;;;;;;;21.17;26.43;98077.97;5125262;27;20180;-72
2022/03/28 08:39:28;;;;;;;38.90;15.30;;;;;;;21.34;25.61;98086.44;5123199;27;20249;-72
2022/03/28 08:41:54;;;;;;;34.77;15.17;;;;;;;21.47;25.14;98081.16;5121515;27;20259;-72
2022/03/28 08:44:20;;;;;;;24.63;14.57;;;;;;;21.58;25.51;98076.25;5123364;27;20298;-71
2022/03/28 08:46:47;;;;;;;34.20;14.87;;;;;;;21.86;25.63;98081.44;5123605;27;20191;-72
2022/03/28 08:49:14;;;;;;;26.37;14.47;;;;;;;21.95;24.36;98082.06;5123320;27;20423;-73
2022/03/28 08:51:39;;;;;;;37.50;15.07;;;;;;;21.94;24.47;98075.91;5123004;27;20914;-73
2022/03/28 08:54:05;;;;;;;32.87;14.63;;;;;;;22.16;24.74;98072.19;5124681;27;20450;-73
2022/03/28 08:56:31;;;;;;;27.33;15.00;;;;;;;22.51;24.89;98072.81;5113167;28;20216;-72
2022/03/28 08:58:56;;;;;;;26.23;15.30;;;;;;;22.80;24.87;98072.53;5113550;28;20418;-71
2022/03/28 09:01:23;;;;;;;27.80;15.40;;;;;;;23.01;24.54;98066.09;5096010;28;20196;-72
2022/03/28 09:03:49;;;;;;;28.13;14.77;;;;;;;23.20;23.51;98063.56;5130200;27;20204;-72
2022/03/28 09:06:37;;;;;;;31.33;15.00;;;;;;;23.44;23.57;98065.50;5114728;27;20419;-71
2022/03/28 09:09:24;;;;;;;29.73;15.67;;;;;;;23.62;23.34;98051.41;5126113;28;20468;-72
2022/03/28 09:11:53;;;;;;;29.20;15.40;;;;;;;23.70;22.83;98063.69;5118244;27;20495;-72
2022/03/28 09:14:33;;;;;;;27.50;15.30;;;;;;;23.94;23.19;98050.56;5120103;28;20496;-73
2022/03/28 09:17:04;;;;;;;30.67;14.70;;;;;;;24.10;22.75;98051.06;5119710;28;20507;-73
2022/03/28 09:19:51;;;;;;;24.23;15.23;;;;;;;24.19;22.29;98044.41;5120911;28;20491;-72
2022/03/28 09:22:37;;;;;;;26.23;16.20;;;;;;;24.33;22.19;98045.91;5129727;27;20429;-72
2022/03/28 09:25:08;;;;;;;27.87;15.90;;;;;;;24.47;21.87;98040.41;5117928;28;20425;-72
2022/03/28 09:27:39;;;;;;;31.23;15.50;;;;;;;24.56;22.03;98033.75;5113931;27;20782;-72
2022/03/28 09:30:08;;;;;;;31.27;15.27;;;;;;;24.54;21.64;98030.47;5115855;27;20867;-72
2022/03/28 09:32:36;;;;;;;33.70;15.30;;;;;;;24.65;21.71;98021.69;5109635;27;21009;-73
2022/03/28 09:35:03;;;;;;;32.83;14.37;;;;;;;24.85;22.52;98020.66;5122259;27;20527;-72
2022/03/28 09:37:29;;;;;;;24.80;14.33;;;;;;;25.05;21.68;98020.41;5125505;27;20445;-73
2022/03/28 09:39:54;;;;;;;38.17;15.20;;;;;;;25.21;21.50;98013.59;5136449;27;20418;-73
2022/03/28 09:42:20;;;;;;;29.80;16.07;;;;;;;25.37;20.52;98012.16;5142846;27;20422;-74
2022/03/28 09:44:53;;;;;;;25.70;16.60;;;;;;;25.23;20.35;98013.38;5131315;27;20316;-73
2022/03/28 09:47:23;;;;;;;26.73;15.00;;;;;;;25.29;20.38;98009.75;5127019;27;20254;-74
2022/03/28 09:49:51;;;;;;;24.77;14.60;;;;;;;25.33;20.81;98004.78;5125372;27;20458;-74
2022/03/28 09:52:20;;;;;;;24.33;14.50;;;;;;;25.56;20.91;97996.81;5122894;28;20422;-72
2022/03/28 09:54:51;;;;;;;44.03;16.13;;;;;;;25.77;19.99;97994.63;5141926;27;20988;-72
2022/03/28 09:57:20;;;;;;;27.93;15.00;;;;;;;25.96;20.05;97983.81;5120198;27;20479;-72
2022/03/28 09:59:45;;;;;;;28.87;15.47;;;;;;;26.01;20.10;97981.22;5122829;27;20433;-72
2022/03/28 10:02:21;;;;;;;25.80;14.80;;;;;;;25.90;19.91;97977.47;5123058;27;20415;-73
2022/03/28 10:04:49;;;;;;;26.00;15.57;;;;;;;26.01;20.02;97983.91;5118624;27;20175;-72
2022/03/28 10:07:15;;;;;;;30.83;16.03;;;;;;;25.99;19.80;97977.94;5118108;27;20427;-72
2022/03/28 10:09:41;;;;;;;23.60;14.83;;;;;;;26.13;19.51;97974.00;5122546;27;20448;-71
2022/03/28 10:12:07;;;;;;;28.70;15.37;;;;;;;26.17;19.62;97967.13;5104306;28;20950;-72
2022/03/28 10:14:33;;;;;;;21.73;14.53;;;;;;;26.17;19.46;97959.06;5123527;27;20243;-72
2022/03/28 10:17:02;;;;;;;25.27;15.57;;;;;;;26.19;19.25;97954.28;5126061;27;20468;-72
2022/03/28 10:19:27;;;;;;;37.53;15.00;;;;;;;26.29;19.35;97959.03;5117255;27;20430;-72
2022/03/28 10:21:54;;;;;;;29.30;14.70;;;;;;;26.32;19.48;97958.56;5133604;27;20414;-72
2022/03/28 10:24:22;;;;;;;27.30;14.80;;;;;;;26.51;19.50;97956.53;5132689;27;20192;-72
2022/03/28 10:26:52;;;;;;;25.23;15.50;;;;;;;26.82;19.24;97946.44;5133527;27;20415;-71
2022/03/28 10:29:21;;;;;;;28.30;15.60;;;;;;;27.04;19.38;97940.38;5133976;27;20414;-72
2022/03/28 10:31:57;;;;;;;28.30;15.17;;;;;;;27.35;19.47;97943.56;5123283;27;20425;-73
2022/03/28 10:34:46;;;;;;;32.10;14.90;;;;;;;27.61;18.63;97935.13;5122524;27;21027;-72
2022/03/28 10:37:35;;;;;;;33.20;16.20;;;;;;;27.74;18.40;97932.13;5120956;27;20415;-74
2022/03/28 10:40:30;;;;;;;24.30;16.30;;;;;;;27.92;18.98;97931.03;5118123;27;20410;-72
2022/03/28 10:43:14;;;;;;;30.43;14.70;;;;;;;27.82;17.94;97920.91;5115534;27;20442;-74
2022/03/28 10:45:46;;;;;;;25.73;14.80;;;;;;;27.87;17.81;97922.84;5116513;27;20426;-74
2022/03/28 10:48:12;;;;;;;25.53;14.80;;;;;;;28.08;18.59;97907.00;5117561;27;20417;-72
2022/03/28 10:50:51;;;;;;;25.30;14.43;;;;;;;28.39;19.46;97902.84;5121031;27;20407;-72
2022/03/28 10:53:20;;;;;;;24.03;15.40;;;;;;;28.60;17.19;97895.81;5124820;27;20204;-73
2022/03/28 10:55:51;;;;;;;23.97;14.40;;;;;;;28.84;17.04;97895.53;5111787;27;20454;-72
2022/03/28 10:58:22;;;;;;;23.13;14.37;;;;;;;28.94;15.93;97892.09;5125156;27;20495;-72
2022/03/28 11:01:05;;;;;;;18.07;13.13;;;;;;;29.11;13.56;97887.41;5124444;27;20418;-73
2022/03/28 11:03:35;;;;;;;22.63;12.83;;;;;;;29.28;15.45;97889.97;5122894;27;20448;-73
2022/03/28 11:06:01;;;;;;;23.57;12.30;;;;;;;29.52;14.11;97876.16;5113116;28;21000;-73
2022/03/28 11:08:41;;;;;;;18.70;12.13;;;;;;;29.77;13.85;97873.88;5111261;27;20810;-72
2022/03/28 11:11:27;;;;;;;18.77;12.77;;;;;;;30.04;13.70;97865.66;5116795;27;20448;-73
2022/03/28 11:14:03;;;;;;;18.30;12.37;;;;;;;29.97;12.57;97870.50;5121364;27;20515;-71
2022/03/28 11:16:41;;;;;;;17.77;12.20;;;;;;;29.55;13.29;97874.84;5121669;27;21326;-71
2022/03/28 11:19:34;;;;;;;16.80;12.97;;;;;;;29.51;13.00;97871.81;5128047;27;20466;-71
2022/03/28 11:22:08;;;;;;;16.60;12.13;;;;;;;29.33;12.56;97862.22;5113538;27;20418;-73